sensor_id;sensor_type;location;lat;lon;timestamp;temperature;humidity
19544;DHT22;9917;51.256;7.152;2023-04-15T00:01:45;7.70;99.90
19544;DHT22;9917;51.256;7.152;2023-04-15T00:09:04;7.90;99.90
19544;DHT22;9917;51.256;7.152;2023-04-15T00:16:22;7.50;99.90
19544;DHT22;9917;51.256;7.152;2023-04-15T00:18:48;8.00;99.90
19544;DHT22;9917;51.256;7.152;2023-04-15T00:21:14;7.40;99.90
19544;DHT22;9917;51.256;7.152;2023-04-15T00:23:39;7.40;99.90
19544;DHT22;9917;51.256;7.152;2023-04-15T00:26:08;7.40;99.90
19544;DHT22;9917;51.256;7.152;2023-04-15T00:31:00;7.50;99.90
19544;DHT22;9917;51.256;7.152;2023-04-15T00:33:25;7.30;99.90
19544;DHT22;9917;51.256;7.152;2023-04-15T00:35:51;7.20;99.90
19544;DHT22;9917;51.256;7.152;2023-04-15T00:43:10;7.40;99.90
19544;DHT22;9917;51.256;7.152;2023-04-15T00:48:02;7.20;99.90
19544;DHT22;9917;51.256;7.152;2023-04-15T00:52:58;7.20;99.90
19544;DHT22;9917;51.256;7.152;2023-04-15T00:57:49;7.00;99.90
19544;DHT22;9917;51.256;7.152;2023-04-15T01:00:17;6.90;99.90
19544;DHT22;9917;51.256;7.152;2023-04-15T01:05:09;6.80;99.90
19544;DHT22;9917;51.256;7.152;2023-04-15T01:07:35;6.70;99.90
19544;DHT22;9917;51.256;7.152;2023-04-15T01:10:01;6.90;99.90
19544;DHT22;9917;51.256;7.152;2023-04-15T01:12:28;6.80;99.90
19544;DHT22;9917;51.256;7.152;2023-04-15T01:14:54;6.90;99.90
19544;DHT22;9917;51.256;7.152;2023-04-15T01:17:21;6.90;99.90
19544;DHT22;9917;51.256;7.152;2023-04-15T01:19:48;7.00;99.90
19544;DHT22;9917;51.256;7.152;2023-04-15T01:22:14;6.90;99.90
19544;DHT22;9917;51.256;7.152;2023-04-15T01:27:08;6.70;99.90
19544;DHT22;9917;51.256;7.152;2023-04-15T01:29:37;6.70;99.90
19544;DHT22;9917;51.256;7.152;2023-04-15T01:34:29;6.60;99.90
19544;DHT22;9917;51.256;7.152;2023-04-15T01:36:54;6.50;99.90
19544;DHT22;9917;51.256;7.152;2023-04-15T01:39:20;6.50;99.90
19544;DHT22;9917;51.256;7.152;2023-04-15T01:41:46;6.50;99.90
19544;DHT22;9917;51.256;7.152;2023-04-15T01:44:14;6.50;99.90
19544;DHT22;9917;51.256;7.152;2023-04-15T01:56:24;6.40;99.90
19544;DHT22;9917;51.256;7.152;2023-04-15T01:58:50;6.40;99.90
19544;DHT22;9917;51.256;7.152;2023-04-15T02:01:17;6.50;99.90
19544;DHT22;9917;51.256;7.152;2023-04-15T02:03:45;6.40;99.90
19544;DHT22;9917;51.256;7.152;2023-04-15T02:06:11;6.30;99.90
19544;DHT22;9917;51.256;7.152;2023-04-15T02:18:22;6.30;99.90
19544;DHT22;9917;51.256;7.152;2023-04-15T02:20:50;6.20;99.90
19544;DHT22;9917;51.256;7.152;2023-04-15T02:30:34;6.70;99.90
19544;DHT22;9917;51.256;7.152;2023-04-15T02:33:00;6.30;99.90
19544;DHT22;9917;51.256;7.152;2023-04-15T02:35:27;6.40;99.90
19544;DHT22;9917;51.256;7.152;2023-04-15T02:37:56;6.40;99.90
19544;DHT22;9917;51.256;7.152;2023-04-15T02:42:48;6.60;99.90
19544;DHT22;9917;51.256;7.152;2023-04-15T02:47:39;5.90;99.90
19544;DHT22;9917;51.256;7.152;2023-04-15T02:50:07;5.90;99.90
19544;DHT22;9917;51.256;7.152;2023-04-15T02:52:34;6.00;99.90
19544;DHT22;9917;51.256;7.152;2023-04-15T03:07:10;5.80;99.90
19544;DHT22;9917;51.256;7.152;2023-04-15T03:09:37;5.80;99.90
19544;DHT22;9917;51.256;7.152;2023-04-15T03:14:29;5.80;99.90
19544;DHT22;9917;51.256;7.152;2023-04-15T03:26:40;5.80;99.90
19544;DHT22;9917;51.256;7.152;2023-04-15T03:43:44;5.70;99.90
19544;DHT22;9917;51.256;7.152;2023-04-15T03:53:27;5.70;99.90
19544;DHT22;9917;51.256;7.152;2023-04-15T03:58:19;5.60;99.90
19544;DHT22;9917;51.256;7.152;2023-04-15T04:00:46;5.90;99.90
19544;DHT22;9917;51.256;7.152;2023-04-15T04:05:38;5.70;99.90
19544;DHT22;9917;51.256;7.152;2023-04-15T04:10:30;5.60;99.90
19544;DHT22;9917;51.256;7.152;2023-04-15T04:17:49;5.40;99.90
19544;DHT22;9917;51.256;7.152;2023-04-15T04:25:08;5.30;99.90
19544;DHT22;9917;51.256;7.152;2023-04-15T04:34:53;5.10;99.90
19544;DHT22;9917;51.256;7.152;2023-04-15T04:39:45;5.50;99.90
19544;DHT22;9917;51.256;7.152;2023-04-15T04:51:56;5.40;99.90
19544;DHT22;9917;51.256;7.152;2023-04-15T04:56:48;5.40;99.90
19544;DHT22;9917;51.256;7.152;2023-04-15T05:08:59;5.40;99.90
19544;DHT22;9917;51.256;7.152;2023-04-15T05:11:25;5.20;99.90
19544;DHT22;9917;51.256;7.152;2023-04-15T05:18:42;5.30;99.90
19544;DHT22;9917;51.256;7.152;2023-04-15T05:26:02;5.60;99.90
19544;DHT22;9917;51.256;7.152;2023-04-15T05:38:11;5.50;99.90
19544;DHT22;9917;51.256;7.152;2023-04-15T05:43:05;5.90;99.90
19544;DHT22;9917;51.256;7.152;2023-04-15T05:57:40;6.40;99.90
19544;DHT22;9917;51.256;7.152;2023-04-15T06:00:08;6.70;99.90
19544;DHT22;9917;51.256;7.152;2023-04-15T06:02:34;6.70;99.90
19544;DHT22;9917;51.256;7.152;2023-04-15T06:05:00;6.50;99.90
19544;DHT22;9917;51.256;7.152;2023-04-15T06:14:44;7.60;99.90
19544;DHT22;9917;51.256;7.152;2023-04-15T06:17:11;8.30;99.90
19544;DHT22;9917;51.256;7.152;2023-04-15T06:22:03;8.30;99.90
19544;DHT22;9917;51.256;7.152;2023-04-15T06:34:16;8.90;99.90
19544;DHT22;9917;51.256;7.152;2023-04-15T06:39:08;9.30;99.90
19544;DHT22;9917;51.256;7.152;2023-04-15T06:41:34;8.80;99.90
19544;DHT22;9917;51.256;7.152;2023-04-15T06:46:26;8.70;99.90
19544;DHT22;9917;51.256;7.152;2023-04-15T06:48:52;9.10;99.90
19544;DHT22;9917;51.256;7.152;2023-04-15T06:51:19;8.60;99.90
19544;DHT22;9917;51.256;7.152;2023-04-15T06:53:45;8.70;99.90
19544;DHT22;9917;51.256;7.152;2023-04-15T06:56:10;8.70;99.90
19544;DHT22;9917;51.256;7.152;2023-04-15T07:05:54;9.40;99.90
19544;DHT22;9917;51.256;7.152;2023-04-15T07:08:22;9.60;99.90
19544;DHT22;9917;51.256;7.152;2023-04-15T07:18:05;10.00;99.90
19544;DHT22;9917;51.256;7.152;2023-04-15T07:25:24;9.80;99.90
19544;DHT22;9917;51.256;7.152;2023-04-15T07:30:16;10.60;99.90
19544;DHT22;9917;51.256;7.152;2023-04-15T07:32:42;11.20;99.90
19544;DHT22;9917;51.256;7.152;2023-04-15T07:35:08;10.90;99.90
19544;DHT22;9917;51.256;7.152;2023-04-15T07:37:34;11.00;99.90
19544;DHT22;9917;51.256;7.152;2023-04-15T07:42:27;11.60;99.90
19544;DHT22;9917;51.256;7.152;2023-04-15T07:44:53;11.70;99.90
19544;DHT22;9917;51.256;7.152;2023-04-15T07:49:44;12.50;99.90
19544;DHT22;9917;51.256;7.152;2023-04-15T07:52:10;12.50;99.90
19544;DHT22;9917;51.256;7.152;2023-04-15T07:54:36;12.70;99.90
19544;DHT22;9917;51.256;7.152;2023-04-15T07:57:01;12.80;99.90
19544;DHT22;9917;51.256;7.152;2023-04-15T07:59:29;13.00;99.90
19544;DHT22;9917;51.256;7.152;2023-04-15T08:01:55;13.60;99.90
19544;DHT22;9917;51.256;7.152;2023-04-15T08:06:47;13.80;99.90
19544;DHT22;9917;51.256;7.152;2023-04-15T08:09:13;14.00;99.90
19544;DHT22;9917;51.256;7.152;2023-04-15T08:11:40;14.30;99.90
19544;DHT22;9917;51.256;7.152;2023-04-15T08:14:07;14.40;99.90
19544;DHT22;9917;51.256;7.152;2023-04-15T08:16:34;14.30;99.90
19544;DHT22;9917;51.256;7.152;2023-04-15T08:18:59;15.40;99.90
19544;DHT22;9917;51.256;7.152;2023-04-15T08:23:53;16.70;98.10
19544;DHT22;9917;51.256;7.152;2023-04-15T08:26:20;17.10;96.40
19544;DHT22;9917;51.256;7.152;2023-04-15T08:28:46;17.40;95.10
19544;DHT22;9917;51.256;7.152;2023-04-15T08:31:14;17.50;93.90
19544;DHT22;9917;51.256;7.152;2023-04-15T08:33:42;17.80;92.10
19544;DHT22;9917;51.256;7.152;2023-04-15T08:36:07;18.20;91.10
19544;DHT22;9917;51.256;7.152;2023-04-15T08:38:34;18.00;90.20
19544;DHT22;9917;51.256;7.152;2023-04-15T08:41:03;17.90;90.10
19544;DHT22;9917;51.256;7.152;2023-04-15T08:43:33;18.30;89.70
19544;DHT22;9917;51.256;7.152;2023-04-15T08:45:59;18.20;89.30
19544;DHT22;9917;51.256;7.152;2023-04-15T08:48:28;18.70;86.70
19544;DHT22;9917;51.256;7.152;2023-04-15T08:50:56;19.70;80.30
19544;DHT22;9917;51.256;7.152;2023-04-15T08:53:23;20.30;74.50
19544;DHT22;9917;51.256;7.152;2023-04-15T08:55:51;20.60;75.60
19544;DHT22;9917;51.256;7.152;2023-04-15T08:58:18;20.60;74.50
19544;DHT22;9917;51.256;7.152;2023-04-15T09:00:44;20.70;74.60
19544;DHT22;9917;51.256;7.152;2023-04-15T09:03:10;21.30;72.40
19544;DHT22;9917;51.256;7.152;2023-04-15T09:05:39;22.20;69.00
19544;DHT22;9917;51.256;7.152;2023-04-15T09:08:06;23.60;60.90
19544;DHT22;9917;51.256;7.152;2023-04-15T09:10:32;23.60;61.50
19544;DHT22;9917;51.256;7.152;2023-04-15T09:12:58;23.80;60.90
19544;DHT22;9917;51.256;7.152;2023-04-15T09:15:24;24.70;57.20
19544;DHT22;9917;51.256;7.152;2023-04-15T09:17:50;24.70;55.30
19544;DHT22;9917;51.256;7.152;2023-04-15T09:20:16;25.00;55.20
19544;DHT22;9917;51.256;7.152;2023-04-15T09:22:44;25.10;55.70
19544;DHT22;9917;51.256;7.152;2023-04-15T09:25:26;25.10;53.20
19544;DHT22;9917;51.256;7.152;2023-04-15T09:27:53;23.50;53.20
19544;DHT22;9917;51.256;7.152;2023-04-15T09:30:19;24.60;54.10
19544;DHT22;9917;51.256;7.152;2023-04-15T09:32:49;24.20;53.80
19544;DHT22;9917;51.256;7.152;2023-04-15T09:35:15;23.00;55.10
19544;DHT22;9917;51.256;7.152;2023-04-15T09:37:40;22.20;56.70
19544;DHT22;9917;51.256;7.152;2023-04-15T09:40:07;21.50;57.30
19544;DHT22;9917;51.256;7.152;2023-04-15T09:42:36;20.70;59.10
19544;DHT22;9917;51.256;7.152;2023-04-15T09:45:11;20.30;59.90
19544;DHT22;9917;51.256;7.152;2023-04-15T09:47:36;20.30;60.80
19544;DHT22;9917;51.256;7.152;2023-04-15T09:50:03;20.30;60.70
19544;DHT22;9917;51.256;7.152;2023-04-15T09:52:29;20.20;60.90
19544;DHT22;9917;51.256;7.152;2023-04-15T09:54:57;19.90;62.10
19544;DHT22;9917;51.256;7.152;2023-04-15T09:57:23;19.60;62.30
19544;DHT22;9917;51.256;7.152;2023-04-15T09:59:51;18.50;64.20
19544;DHT22;9917;51.256;7.152;2023-04-15T10:02:18;18.70;65.00
19544;DHT22;9917;51.256;7.152;2023-04-15T10:04:44;18.20;66.50
19544;DHT22;9917;51.256;7.152;2023-04-15T10:07:12;17.90;67.90
19544;DHT22;9917;51.256;7.152;2023-04-15T10:09:39;16.70;71.20
19544;DHT22;9917;51.256;7.152;2023-04-15T10:12:11;16.40;73.00
19544;DHT22;9917;51.256;7.152;2023-04-15T10:14:39;16.30;74.10
19544;DHT22;9917;51.256;7.152;2023-04-15T10:17:07;15.80;76.70
19544;DHT22;9917;51.256;7.152;2023-04-15T10:19:36;15.30;77.10
19544;DHT22;9917;51.256;7.152;2023-04-15T10:22:02;15.30;78.70
19544;DHT22;9917;51.256;7.152;2023-04-15T10:24:31;15.30;80.10
19544;DHT22;9917;51.256;7.152;2023-04-15T10:26:58;15.10;81.30
19544;DHT22;9917;51.256;7.152;2023-04-15T10:31:50;14.90;83.70
19544;DHT22;9917;51.256;7.152;2023-04-15T10:34:18;14.70;84.20
19544;DHT22;9917;51.256;7.152;2023-04-15T10:39:37;14.50;86.30
19544;DHT22;9917;51.256;7.152;2023-04-15T10:42:07;14.70;87.30
19544;DHT22;9917;51.256;7.152;2023-04-15T10:44:33;14.80;87.80
19544;DHT22;9917;51.256;7.152;2023-04-15T10:47:00;14.60;88.10
19544;DHT22;9917;51.256;7.152;2023-04-15T10:49:27;14.70;88.70
19544;DHT22;9917;51.256;7.152;2023-04-15T10:51:56;15.10;88.30
19544;DHT22;9917;51.256;7.152;2023-04-15T10:54:31;15.30;88.60
19544;DHT22;9917;51.256;7.152;2023-04-15T10:57:07;15.20;89.70
19544;DHT22;9917;51.256;7.152;2023-04-15T10:59:36;15.00;88.10
19544;DHT22;9917;51.256;7.152;2023-04-15T11:02:04;15.00;88.70
19544;DHT22;9917;51.256;7.152;2023-04-15T11:04:54;15.10;88.90
19544;DHT22;9917;51.256;7.152;2023-04-15T11:07:34;15.10;89.20
19544;DHT22;9917;51.256;7.152;2023-04-15T11:10:00;15.10;88.70
19544;DHT22;9917;51.256;7.152;2023-04-15T11:12:33;15.10;89.00
19544;DHT22;9917;51.256;7.152;2023-04-15T11:14:59;15.10;89.30
19544;DHT22;9917;51.256;7.152;2023-04-15T11:17:26;15.10;89.60
19544;DHT22;9917;51.256;7.152;2023-04-15T11:19:53;14.80;89.20
19544;DHT22;9917;51.256;7.152;2023-04-15T11:22:19;14.90;90.00
19544;DHT22;9917;51.256;7.152;2023-04-15T11:24:48;14.80;90.30
19544;DHT22;9917;51.256;7.152;2023-04-15T11:27:20;14.60;90.70
19544;DHT22;9917;51.256;7.152;2023-04-15T11:29:46;14.40;91.30
19544;DHT22;9917;51.256;7.152;2023-04-15T11:32:11;14.30;91.50
19544;DHT22;9917;51.256;7.152;2023-04-15T11:34:37;14.00;91.90
19544;DHT22;9917;51.256;7.152;2023-04-15T11:37:05;14.20;92.20
19544;DHT22;9917;51.256;7.152;2023-04-15T11:39:31;14.10;92.50
19544;DHT22;9917;51.256;7.152;2023-04-15T11:41:56;14.10;92.70
19544;DHT22;9917;51.256;7.152;2023-04-15T11:46:48;13.80;93.10
19544;DHT22;9917;51.256;7.152;2023-04-15T11:49:25;13.80;93.40
19544;DHT22;9917;51.256;7.152;2023-04-15T11:51:51;13.80;93.70
19544;DHT22;9917;51.256;7.152;2023-04-15T11:54:19;13.60;94.00
19544;DHT22;9917;51.256;7.152;2023-04-15T11:56:49;13.40;94.70
19544;DHT22;9917;51.256;7.152;2023-04-15T11:59:15;13.50;95.10
19544;DHT22;9917;51.256;7.152;2023-04-15T12:01:41;13.20;95.30
19544;DHT22;9917;51.256;7.152;2023-04-15T12:04:10;13.30;96.00
19544;DHT22;9917;51.256;7.152;2023-04-15T12:06:36;13.10;95.60
19544;DHT22;9917;51.256;7.152;2023-04-15T12:09:10;13.20;96.00
19544;DHT22;9917;51.256;7.152;2023-04-15T12:11:42;13.20;96.10
19544;DHT22;9917;51.256;7.152;2023-04-15T12:14:10;13.20;96.40
19544;DHT22;9917;51.256;7.152;2023-04-15T12:16:38;13.10;96.30
19544;DHT22;9917;51.256;7.152;2023-04-15T12:19:06;13.20;96.50
19544;DHT22;9917;51.256;7.152;2023-04-15T12:21:35;13.20;97.20
19544;DHT22;9917;51.256;7.152;2023-04-15T12:24:02;13.10;97.10
19544;DHT22;9917;51.256;7.152;2023-04-15T12:26:30;13.40;97.50
19544;DHT22;9917;51.256;7.152;2023-04-15T12:29:01;13.20;97.40
19544;DHT22;9917;51.256;7.152;2023-04-15T12:33:54;12.90;97.80
19544;DHT22;9917;51.256;7.152;2023-04-15T12:36:20;13.00;97.80
19544;DHT22;9917;51.256;7.152;2023-04-15T12:38:46;13.20;98.00
19544;DHT22;9917;51.256;7.152;2023-04-15T12:41:11;12.60;98.30
19544;DHT22;9917;51.256;7.152;2023-04-15T12:43:37;13.20;98.70
19544;DHT22;9917;51.256;7.152;2023-04-15T12:46:04;12.80;98.50
19544;DHT22;9917;51.256;7.152;2023-04-15T12:48:30;12.90;98.50
19544;DHT22;9917;51.256;7.152;2023-04-15T12:50:56;13.30;99.20
19544;DHT22;9917;51.256;7.152;2023-04-15T12:53:22;13.10;99.10
19544;DHT22;9917;51.256;7.152;2023-04-15T12:55:47;12.90;99.10
19544;DHT22;9917;51.256;7.152;2023-04-15T12:58:13;12.90;99.20
19544;DHT22;9917;51.256;7.152;2023-04-15T13:00:39;13.20;99.40
19544;DHT22;9917;51.256;7.152;2023-04-15T13:03:06;12.80;99.40
19544;DHT22;9917;51.256;7.152;2023-04-15T13:07:58;12.70;99.80
19544;DHT22;9917;51.256;7.152;2023-04-15T13:10:23;13.00;99.90
19544;DHT22;9917;51.256;7.152;2023-04-15T13:17:41;13.20;99.90
19544;DHT22;9917;51.256;7.152;2023-04-15T13:20:09;13.00;99.90
19544;DHT22;9917;51.256;7.152;2023-04-15T13:22:35;13.30;99.90
19544;DHT22;9917;51.256;7.152;2023-04-15T13:25:01;13.10;99.90
19544;DHT22;9917;51.256;7.152;2023-04-15T13:29:53;12.90;99.90
19544;DHT22;9917;51.256;7.152;2023-04-15T13:34:45;13.00;99.90
19544;DHT22;9917;51.256;7.152;2023-04-15T13:37:12;13.00;99.90
19544;DHT22;9917;51.256;7.152;2023-04-15T13:39:38;13.10;99.90
19544;DHT22;9917;51.256;7.152;2023-04-15T13:42:03;13.30;99.90
19544;DHT22;9917;51.256;7.152;2023-04-15T13:44:29;13.40;99.90
19544;DHT22;9917;51.256;7.152;2023-04-15T13:46:55;13.10;99.90
19544;DHT22;9917;51.256;7.152;2023-04-15T13:49:21;13.40;99.90
19544;DHT22;9917;51.256;7.152;2023-04-15T13:54:14;13.40;99.90
19544;DHT22;9917;51.256;7.152;2023-04-15T13:56:40;13.50;99.90
19544;DHT22;9917;51.256;7.152;2023-04-15T13:59:05;13.70;99.90
19544;DHT22;9917;51.256;7.152;2023-04-15T14:01:31;13.90;99.90
19544;DHT22;9917;51.256;7.152;2023-04-15T14:06:23;14.40;99.90
19544;DHT22;9917;51.256;7.152;2023-04-15T14:08:49;14.30;99.90
19544;DHT22;9917;51.256;7.152;2023-04-15T14:11:17;14.10;99.90
19544;DHT22;9917;51.256;7.152;2023-04-15T14:13:43;13.90;99.90
19544;DHT22;9917;51.256;7.152;2023-04-15T14:16:09;14.00;99.90
19544;DHT22;9917;51.256;7.152;2023-04-15T14:18:35;13.60;99.90
19544;DHT22;9917;51.256;7.152;2023-04-15T14:21:00;13.50;99.90
19544;DHT22;9917;51.256;7.152;2023-04-15T14:25:52;13.00;99.90
19544;DHT22;9917;51.256;7.152;2023-04-15T14:28:19;13.00;99.90
19544;DHT22;9917;51.256;7.152;2023-04-15T14:30:45;13.40;99.90
19544;DHT22;9917;51.256;7.152;2023-04-15T14:33:11;13.00;99.90
19544;DHT22;9917;51.256;7.152;2023-04-15T14:35:37;13.10;99.90
19544;DHT22;9917;51.256;7.152;2023-04-15T14:40:29;13.50;99.90
19544;DHT22;9917;51.256;7.152;2023-04-15T14:45:22;13.40;99.90
19544;DHT22;9917;51.256;7.152;2023-04-15T14:47:47;13.30;99.90
19544;DHT22;9917;51.256;7.152;2023-04-15T14:50:13;13.20;99.90
19544;DHT22;9917;51.256;7.152;2023-04-15T14:52:39;13.40;99.90
19544;DHT22;9917;51.256;7.152;2023-04-15T14:55:06;13.20;99.90
19544;DHT22;9917;51.256;7.152;2023-04-15T14:57:32;13.40;99.90
19544;DHT22;9917;51.256;7.152;2023-04-15T15:00:00;13.30;99.90
19544;DHT22;9917;51.256;7.152;2023-04-15T15:02:27;13.10;99.90
19544;DHT22;9917;51.256;7.152;2023-04-15T15:04:53;13.00;99.90
19544;DHT22;9917;51.256;7.152;2023-04-15T15:07:19;13.30;99.90
19544;DHT22;9917;51.256;7.152;2023-04-15T15:09:44;13.00;99.90
19544;DHT22;9917;51.256;7.152;2023-04-15T15:12:14;12.90;99.90
19544;DHT22;9917;51.256;7.152;2023-04-15T15:14:40;13.10;99.90
19544;DHT22;9917;51.256;7.152;2023-04-15T15:19:39;13.20;99.90
19544;DHT22;9917;51.256;7.152;2023-04-15T15:22:05;13.10;99.90
19544;DHT22;9917;51.256;7.152;2023-04-15T15:24:32;12.80;99.90
19544;DHT22;9917;51.256;7.152;2023-04-15T15:26:58;12.80;99.90
19544;DHT22;9917;51.256;7.152;2023-04-15T15:29:25;13.30;99.90
19544;DHT22;9917;51.256;7.152;2023-04-15T15:34:17;12.80;99.90
19544;DHT22;9917;51.256;7.152;2023-04-15T15:36:44;12.70;99.90
19544;DHT22;9917;51.256;7.152;2023-04-15T15:39:10;12.90;99.90
19544;DHT22;9917;51.256;7.152;2023-04-15T15:41:36;12.60;99.90
19544;DHT22;9917;51.256;7.152;2023-04-15T15:46:28;12.50;99.90
19544;DHT22;9917;51.256;7.152;2023-04-15T15:48:54;12.50;99.90
19544;DHT22;9917;51.256;7.152;2023-04-15T15:53:50;12.30;99.90
19544;DHT22;9917;51.256;7.152;2023-04-15T15:56:16;12.20;99.90
19544;DHT22;9917;51.256;7.152;2023-04-15T15:58:42;11.70;99.90
19544;DHT22;9917;51.256;7.152;2023-04-15T16:03:34;12.00;99.90
19544;DHT22;9917;51.256;7.152;2023-04-15T16:06:00;12.00;99.90
19544;DHT22;9917;51.256;7.152;2023-04-15T16:08:26;11.60;99.90
19544;DHT22;9917;51.256;7.152;2023-04-15T16:10:53;11.80;99.90
19544;DHT22;9917;51.256;7.152;2023-04-15T16:15:45;11.90;99.90
19544;DHT22;9917;51.256;7.152;2023-04-15T16:20:38;11.80;99.90
19544;DHT22;9917;51.256;7.152;2023-04-15T16:23:09;11.80;99.90
19544;DHT22;9917;51.256;7.152;2023-04-15T16:25:36;11.80;99.90
19544;DHT22;9917;51.256;7.152;2023-04-15T16:28:03;11.60;99.90
19544;DHT22;9917;51.256;7.152;2023-04-15T16:30:29;11.50;99.90
19544;DHT22;9917;51.256;7.152;2023-04-15T16:32:55;11.40;99.90
19544;DHT22;9917;51.256;7.152;2023-04-15T16:35:21;11.70;99.90
19544;DHT22;9917;51.256;7.152;2023-04-15T16:40:13;11.30;99.90
19544;DHT22;9917;51.256;7.152;2023-04-15T16:42:39;11.30;99.90
19544;DHT22;9917;51.256;7.152;2023-04-15T16:45:07;11.40;99.90
19544;DHT22;9917;51.256;7.152;2023-04-15T16:47:33;11.30;99.90
19544;DHT22;9917;51.256;7.152;2023-04-15T16:54:51;11.20;99.90
19544;DHT22;9917;51.256;7.152;2023-04-15T16:59:42;10.90;99.90
19544;DHT22;9917;51.256;7.152;2023-04-15T17:02:13;10.90;99.90
19544;DHT22;9917;51.256;7.152;2023-04-15T17:04:39;11.30;99.90
19544;DHT22;9917;51.256;7.152;2023-04-15T17:07:05;10.90;99.90
19544;DHT22;9917;51.256;7.152;2023-04-15T17:09:31;10.70;99.90
19544;DHT22;9917;51.256;7.152;2023-04-15T17:14:22;10.70;99.90
19544;DHT22;9917;51.256;7.152;2023-04-15T17:16:48;10.90;99.90
19544;DHT22;9917;51.256;7.152;2023-04-15T17:19:15;10.60;99.90
19544;DHT22;9917;51.256;7.152;2023-04-15T17:21:41;10.50;99.90
19544;DHT22;9917;51.256;7.152;2023-04-15T17:26:33;10.60;99.90
19544;DHT22;9917;51.256;7.152;2023-04-15T17:28:59;10.60;99.90
19544;DHT22;9917;51.256;7.152;2023-04-15T17:33:55;10.70;99.90
19544;DHT22;9917;51.256;7.152;2023-04-15T17:36:22;10.50;99.90
19544;DHT22;9917;51.256;7.152;2023-04-15T17:38:48;10.20;99.90
19544;DHT22;9917;51.256;7.152;2023-04-15T17:41:14;10.00;99.90
19544;DHT22;9917;51.256;7.152;2023-04-15T17:43:40;10.60;99.90
19544;DHT22;9917;51.256;7.152;2023-04-15T17:46:06;10.50;99.90
19544;DHT22;9917;51.256;7.152;2023-04-15T17:50:58;10.20;99.90
19544;DHT22;9917;51.256;7.152;2023-04-15T17:53:25;10.70;99.90
19544;DHT22;9917;51.256;7.152;2023-04-15T18:03:08;10.40;99.90
19544;DHT22;9917;51.256;7.152;2023-04-15T18:05:34;10.30;99.90
19544;DHT22;9917;51.256;7.152;2023-04-15T18:10:27;10.40;99.90
19544;DHT22;9917;51.256;7.152;2023-04-15T18:12:53;10.70;99.90
19544;DHT22;9917;51.256;7.152;2023-04-15T18:25:04;10.30;99.90
19544;DHT22;9917;51.256;7.152;2023-04-15T18:27:32;10.30;99.90
19544;DHT22;9917;51.256;7.152;2023-04-15T18:39:42;10.00;99.90
19544;DHT22;9917;51.256;7.152;2023-04-15T18:42:08;10.10;99.90
19544;DHT22;9917;51.256;7.152;2023-04-15T18:44:35;10.20;99.90
19544;DHT22;9917;51.256;7.152;2023-04-15T18:47:01;10.30;99.90
19544;DHT22;9917;51.256;7.152;2023-04-15T18:59:10;10.00;99.90
19544;DHT22;9917;51.256;7.152;2023-04-15T19:01:37;10.10;99.90
19544;DHT22;9917;51.256;7.152;2023-04-15T19:04:03;9.60;99.90
19544;DHT22;9917;51.256;7.152;2023-04-15T19:11:21;10.10;99.90
19544;DHT22;9917;51.256;7.152;2023-04-15T19:16:12;9.80;99.90
19544;DHT22;9917;51.256;7.152;2023-04-15T19:18:41;9.90;99.90
19544;DHT22;9917;51.256;7.152;2023-04-15T19:21:06;9.80;99.90
19544;DHT22;9917;51.256;7.152;2023-04-15T19:25:58;9.80;99.90
19544;DHT22;9917;51.256;7.152;2023-04-15T19:30:50;9.80;99.90
19544;DHT22;9917;51.256;7.152;2023-04-15T19:33:16;9.90;99.90
19544;DHT22;9917;51.256;7.152;2023-04-15T19:35:43;9.90;99.90
19544;DHT22;9917;51.256;7.152;2023-04-15T19:40:35;9.80;99.90
19544;DHT22;9917;51.256;7.152;2023-04-15T19:47:52;9.60;99.90
19544;DHT22;9917;51.256;7.152;2023-04-15T19:50:18;9.90;99.90
19544;DHT22;9917;51.256;7.152;2023-04-15T19:52:45;9.90;99.90
19544;DHT22;9917;51.256;7.152;2023-04-15T19:55:11;9.90;99.90
19544;DHT22;9917;51.256;7.152;2023-04-15T19:57:38;9.90;99.90
19544;DHT22;9917;51.256;7.152;2023-04-15T20:00:05;9.90;99.90
19544;DHT22;9917;51.256;7.152;2023-04-15T20:02:31;9.90;99.90
19544;DHT22;9917;51.256;7.152;2023-04-15T20:04:57;10.00;99.90
19544;DHT22;9917;51.256;7.152;2023-04-15T20:09:50;9.80;99.90
19544;DHT22;9917;51.256;7.152;2023-04-15T20:12:16;9.70;99.90
19544;DHT22;9917;51.256;7.152;2023-04-15T20:17:08;9.60;99.90
19544;DHT22;9917;51.256;7.152;2023-04-15T20:19:34;9.30;99.90
19544;DHT22;9917;51.256;7.152;2023-04-15T20:24:25;9.40;99.90
19544;DHT22;9917;51.256;7.152;2023-04-15T20:26:52;9.70;99.90
19544;DHT22;9917;51.256;7.152;2023-04-15T20:29:18;9.50;99.90
19544;DHT22;9917;51.256;7.152;2023-04-15T20:36:36;9.40;99.90
19544;DHT22;9917;51.256;7.152;2023-04-15T20:43:55;9.90;99.90
19544;DHT22;9917;51.256;7.152;2023-04-15T20:53:39;9.60;99.90
19544;DHT22;9917;51.256;7.152;2023-04-15T20:56:05;9.60;99.90
19544;DHT22;9917;51.256;7.152;2023-04-15T20:58:30;10.10;99.90
19544;DHT22;9917;51.256;7.152;2023-04-15T21:00:58;9.80;99.90
19544;DHT22;9917;51.256;7.152;2023-04-15T21:03:23;9.80;99.90
19544;DHT22;9917;51.256;7.152;2023-04-15T21:10:41;10.10;99.90
19544;DHT22;9917;51.256;7.152;2023-04-15T21:18:00;9.70;99.90
19544;DHT22;9917;51.256;7.152;2023-04-15T21:20:26;9.70;99.90
19544;DHT22;9917;51.256;7.152;2023-04-15T21:25:19;9.30;99.90
19544;DHT22;9917;51.256;7.152;2023-04-15T21:27:45;9.40;99.90
19544;DHT22;9917;51.256;7.152;2023-04-15T21:30:11;9.70;99.90
19544;DHT22;9917;51.256;7.152;2023-04-15T21:32:37;10.50;99.90
19544;DHT22;9917;51.256;7.152;2023-04-15T21:35:05;9.80;99.90
19544;DHT22;9917;51.256;7.152;2023-04-15T21:37:31;9.60;99.90
19544;DHT22;9917;51.256;7.152;2023-04-15T21:42:23;9.60;99.90
19544;DHT22;9917;51.256;7.152;2023-04-15T21:49:40;9.70;99.90
19544;DHT22;9917;51.256;7.152;2023-04-15T21:52:08;9.80;99.90
19544;DHT22;9917;51.256;7.152;2023-04-15T21:59:26;9.70;99.90
19544;DHT22;9917;51.256;7.152;2023-04-15T22:01:52;9.70;99.90
19544;DHT22;9917;51.256;7.152;2023-04-15T22:09:14;9.60;99.90
19544;DHT22;9917;51.256;7.152;2023-04-15T22:11:40;9.80;99.90
19544;DHT22;9917;51.256;7.152;2023-04-15T22:14:05;9.40;99.90
19544;DHT22;9917;51.256;7.152;2023-04-15T22:23:50;9.80;99.90
19544;DHT22;9917;51.256;7.152;2023-04-15T22:26:17;9.70;99.90
19544;DHT22;9917;51.256;7.152;2023-04-15T22:28:43;10.70;99.90
19544;DHT22;9917;51.256;7.152;2023-04-15T22:33:34;9.60;99.90
19544;DHT22;9917;51.256;7.152;2023-04-15T22:36:00;9.90;99.90
19544;DHT22;9917;51.256;7.152;2023-04-15T22:38:26;9.50;99.90
19544;DHT22;9917;51.256;7.152;2023-04-15T22:43:19;9.70;99.90
19544;DHT22;9917;51.256;7.152;2023-04-15T22:45:48;11.40;99.90
19544;DHT22;9917;51.256;7.152;2023-04-15T22:50:40;9.90;99.90
19544;DHT22;9917;51.256;7.152;2023-04-15T23:00:25;10.10;99.90
19544;DHT22;9917;51.256;7.152;2023-04-15T23:02:50;10.10;99.90
19544;DHT22;9917;51.256;7.152;2023-04-15T23:05:16;9.40;99.90
19544;DHT22;9917;51.256;7.152;2023-04-15T23:10:08;9.80;99.90
19544;DHT22;9917;51.256;7.152;2023-04-15T23:15:00;9.60;99.90
19544;DHT22;9917;51.256;7.152;2023-04-15T23:17:27;9.90;99.90
19544;DHT22;9917;51.256;7.152;2023-04-15T23:19:53;9.80;99.90
19544;DHT22;9917;51.256;7.152;2023-04-15T23:22:18;9.80;99.90
19544;DHT22;9917;51.256;7.152;2023-04-15T23:24:45;9.80;99.90
19544;DHT22;9917;51.256;7.152;2023-04-15T23:27:11;9.70;99.90